sensor_id;sensor_type;location;lat;lon;timestamp;P1;durP1;ratioP1;P2;durP2;ratioP2
69419;SDS011;56612;52.030;113.524;2023-04-15T00:01:53;34.60;;;12.48;;
69419;SDS011;56612;52.030;113.524;2023-04-15T00:04:57;44.63;;;13.88;;
69419;SDS011;56612;52.030;113.524;2023-04-15T00:08:00;33.90;;;12.80;;
69419;SDS011;56612;52.030;113.524;2023-04-15T00:11:04;33.23;;;12.33;;
69419;SDS011;56612;52.030;113.524;2023-04-15T00:14:08;40.22;;;13.18;;
69419;SDS011;56612;52.030;113.524;2023-04-15T00:17:12;35.63;;;12.60;;
69419;SDS011;56612;52.030;113.524;2023-04-15T00:20:16;45.38;;;13.27;;
69419;SDS011;56612;52.030;113.524;2023-04-15T00:23:20;42.88;;;12.40;;
69419;SDS011;56612;52.030;113.524;2023-04-15T00:26:31;53.03;;;13.53;;
69419;SDS011;56612;52.030;113.524;2023-04-15T00:29:35;48.65;;;12.27;;
69419;SDS011;56612;52.030;113.524;2023-04-15T00:32:39;40.28;;;12.52;;
69419;SDS011;56612;52.030;113.524;2023-04-15T00:35:44;57.75;;;15.15;;
69419;SDS011;56612;52.030;113.524;2023-04-15T00:38:47;50.75;;;14.43;;
69419;SDS011;56612;52.030;113.524;2023-04-15T00:41:51;40.70;;;13.67;;
69419;SDS011;56612;52.030;113.524;2023-04-15T00:44:56;43.50;;;11.90;;
69419;SDS011;56612;52.030;113.524;2023-04-15T00:48:00;61.25;;;15.07;;
69419;SDS011;56612;52.030;113.524;2023-04-15T00:51:06;54.72;;;15.18;;
69419;SDS011;56612;52.030;113.524;2023-04-15T00:54:11;66.63;;;18.25;;
69419;SDS011;56612;52.030;113.524;2023-04-15T00:57:15;60.43;;;15.20;;
69419;SDS011;56612;52.030;113.524;2023-04-15T01:00:19;61.60;;;15.90;;
69419;SDS011;56612;52.030;113.524;2023-04-15T01:03:22;47.67;;;14.55;;
69419;SDS011;56612;52.030;113.524;2023-04-15T01:06:26;53.78;;;16.52;;
69419;SDS011;56612;52.030;113.524;2023-04-15T01:09:31;54.38;;;14.57;;
69419;SDS011;56612;52.030;113.524;2023-04-15T01:12:34;60.47;;;15.57;;
69419;SDS011;56612;52.030;113.524;2023-04-15T01:15:40;47.55;;;13.30;;
69419;SDS011;56612;52.030;113.524;2023-04-15T01:18:45;45.97;;;12.98;;
69419;SDS011;56612;52.030;113.524;2023-04-15T01:21:49;56.10;;;14.40;;
69419;SDS011;56612;52.030;113.524;2023-04-15T01:24:59;61.70;;;12.95;;
69419;SDS011;56612;52.030;113.524;2023-04-15T01:28:07;39.03;;;13.53;;
69419;SDS011;56612;52.030;113.524;2023-04-15T01:31:12;48.10;;;13.95;;
69419;SDS011;56612;52.030;113.524;2023-04-15T01:34:18;39.88;;;12.45;;
69419;SDS011;56612;52.030;113.524;2023-04-15T01:37:21;34.75;;;11.38;;
69419;SDS011;56612;52.030;113.524;2023-04-15T01:40:25;46.45;;;11.93;;
69419;SDS011;56612;52.030;113.524;2023-04-15T01:43:31;34.93;;;12.37;;
69419;SDS011;56612;52.030;113.524;2023-04-15T01:46:36;35.85;;;12.65;;
69419;SDS011;56612;52.030;113.524;2023-04-15T01:49:40;35.13;;;11.73;;
69419;SDS011;56612;52.030;113.524;2023-04-15T01:52:44;47.08;;;12.73;;
69419;SDS011;56612;52.030;113.524;2023-04-15T01:55:48;38.38;;;13.05;;
69419;SDS011;56612;52.030;113.524;2023-04-15T01:58:52;35.50;;;10.37;;
69419;SDS011;56612;52.030;113.524;2023-04-15T02:01:56;41.40;;;12.82;;
69419;SDS011;56612;52.030;113.524;2023-04-15T02:05:01;37.33;;;11.52;;
69419;SDS011;56612;52.030;113.524;2023-04-15T02:08:08;39.50;;;12.10;;
69419;SDS011;56612;52.030;113.524;2023-04-15T02:11:12;47.45;;;11.73;;
69419;SDS011;56612;52.030;113.524;2023-04-15T02:14:17;41.33;;;10.60;;
69419;SDS011;56612;52.030;113.524;2023-04-15T02:17:59;33.58;;;11.18;;
69419;SDS011;56612;52.030;113.524;2023-04-15T02:21:17;33.67;;;10.82;;
69419;SDS011;56612;52.030;113.524;2023-04-15T02:24:22;60.08;;;11.27;;
69419;SDS011;56612;52.030;113.524;2023-04-15T02:27:29;55.25;;;12.70;;
69419;SDS011;56612;52.030;113.524;2023-04-15T02:30:37;65.60;;;12.77;;
69419;SDS011;56612;52.030;113.524;2023-04-15T02:33:43;39.55;;;10.73;;
69419;SDS011;56612;52.030;113.524;2023-04-15T02:36:49;30.35;;;9.68;;
69419;SDS011;56612;52.030;113.524;2023-04-15T02:39:57;61.55;;;14.00;;
69419;SDS011;56612;52.030;113.524;2023-04-15T02:43:01;44.15;;;13.60;;
69419;SDS011;56612;52.030;113.524;2023-04-15T02:46:10;40.20;;;12.80;;
69419;SDS011;56612;52.030;113.524;2023-04-15T02:49:17;41.85;;;12.70;;
69419;SDS011;56612;52.030;113.524;2023-04-15T02:52:24;43.28;;;14.48;;
69419;SDS011;56612;52.030;113.524;2023-04-15T02:55:29;43.65;;;15.27;;
69419;SDS011;56612;52.030;113.524;2023-04-15T02:58:49;40.45;;;15.27;;
69419;SDS011;56612;52.030;113.524;2023-04-15T03:01:53;44.27;;;15.07;;
69419;SDS011;56612;52.030;113.524;2023-04-15T03:05:03;47.17;;;14.38;;
69419;SDS011;56612;52.030;113.524;2023-04-15T03:08:07;45.92;;;14.52;;
69419;SDS011;56612;52.030;113.524;2023-04-15T03:11:13;28.95;;;7.90;;
69419;SDS011;56612;52.030;113.524;2023-04-15T03:14:19;33.65;;;11.80;;
69419;SDS011;56612;52.030;113.524;2023-04-15T03:17:25;19.20;;;7.33;;
69419;SDS011;56612;52.030;113.524;2023-04-15T03:20:30;17.17;;;5.50;;
69419;SDS011;56612;52.030;113.524;2023-04-15T03:23:36;14.82;;;3.63;;
69419;SDS011;56612;52.030;113.524;2023-04-15T03:26:42;28.38;;;4.70;;
69419;SDS011;56612;52.030;113.524;2023-04-15T03:29:51;20.90;;;6.60;;
69419;SDS011;56612;52.030;113.524;2023-04-15T03:32:59;34.70;;;9.83;;
69419;SDS011;56612;52.030;113.524;2023-04-15T03:36:07;14.13;;;4.60;;
69419;SDS011;56612;52.030;113.524;2023-04-15T03:39:12;35.58;;;9.57;;
69419;SDS011;56612;52.030;113.524;2023-04-15T03:43:02;25.73;;;10.52;;
69419;SDS011;56612;52.030;113.524;2023-04-15T03:46:07;35.33;;;10.40;;
69419;SDS011;56612;52.030;113.524;2023-04-15T03:49:15;77.40;;;10.57;;
69419;SDS011;56612;52.030;113.524;2023-04-15T03:52:26;27.13;;;6.70;;
69419;SDS011;56612;52.030;113.524;2023-04-15T03:55:31;20.67;;;5.28;;
69419;SDS011;56612;52.030;113.524;2023-04-15T03:58:41;18.10;;;4.30;;
69419;SDS011;56612;52.030;113.524;2023-04-15T04:01:48;25.23;;;5.70;;
69419;SDS011;56612;52.030;113.524;2023-04-15T04:05:04;15.63;;;4.50;;
69419;SDS011;56612;52.030;113.524;2023-04-15T04:08:13;19.08;;;4.68;;
69419;SDS011;56612;52.030;113.524;2023-04-15T04:11:28;18.10;;;5.00;;
69419;SDS011;56612;52.030;113.524;2023-04-15T04:14:43;17.00;;;4.57;;
69419;SDS011;56612;52.030;113.524;2023-04-15T04:17:48;14.98;;;3.80;;
69419;SDS011;56612;52.030;113.524;2023-04-15T04:21:09;16.50;;;4.20;;
69419;SDS011;56612;52.030;113.524;2023-04-15T04:24:16;37.88;;;5.28;;
69419;SDS011;56612;52.030;113.524;2023-04-15T04:27:24;19.85;;;7.22;;
69419;SDS011;56612;52.030;113.524;2023-04-15T04:30:28;15.85;;;6.50;;
69419;SDS011;56612;52.030;113.524;2023-04-15T04:33:32;31.10;;;6.85;;
69419;SDS011;56612;52.030;113.524;2023-04-15T04:36:36;15.63;;;5.83;;
69419;SDS011;56612;52.030;113.524;2023-04-15T04:39:39;25.58;;;6.90;;
69419;SDS011;56612;52.030;113.524;2023-04-15T04:42:43;16.80;;;7.30;;
69419;SDS011;56612;52.030;113.524;2023-04-15T04:45:46;27.35;;;8.20;;
69419;SDS011;56612;52.030;113.524;2023-04-15T04:48:50;13.20;;;5.15;;
69419;SDS011;56612;52.030;113.524;2023-04-15T04:51:53;15.80;;;6.13;;
69419;SDS011;56612;52.030;113.524;2023-04-15T04:54:58;16.98;;;5.45;;
69419;SDS011;56612;52.030;113.524;2023-04-15T04:58:01;11.90;;;4.28;;
69419;SDS011;56612;52.030;113.524;2023-04-15T05:01:05;13.52;;;4.50;;
69419;SDS011;56612;52.030;113.524;2023-04-15T05:04:09;16.75;;;5.70;;
69419;SDS011;56612;52.030;113.524;2023-04-15T05:07:13;10.77;;;4.83;;
69419;SDS011;56612;52.030;113.524;2023-04-15T05:10:17;15.18;;;5.22;;
69419;SDS011;56612;52.030;113.524;2023-04-15T05:13:21;18.55;;;4.60;;
69419;SDS011;56612;52.030;113.524;2023-04-15T05:16:25;12.55;;;4.55;;
69419;SDS011;56612;52.030;113.524;2023-04-15T05:19:30;26.27;;;6.00;;
69419;SDS011;56612;52.030;113.524;2023-04-15T05:22:33;17.00;;;5.33;;
69419;SDS011;56612;52.030;113.524;2023-04-15T05:25:36;19.00;;;5.13;;
69419;SDS011;56612;52.030;113.524;2023-04-15T05:28:39;32.63;;;6.18;;
69419;SDS011;56612;52.030;113.524;2023-04-15T05:31:51;13.73;;;3.67;;
69419;SDS011;56612;52.030;113.524;2023-04-15T05:34:56;9.57;;;3.40;;
69419;SDS011;56612;52.030;113.524;2023-04-15T05:38:00;16.40;;;4.40;;
69419;SDS011;56612;52.030;113.524;2023-04-15T05:41:12;14.80;;;2.70;;
69419;SDS011;56612;52.030;113.524;2023-04-15T05:44:21;17.90;;;3.50;;
69419;SDS011;56612;52.030;113.524;2023-04-15T05:47:27;18.67;;;3.90;;
69419;SDS011;56612;52.030;113.524;2023-04-15T05:50:31;14.70;;;4.15;;
69419;SDS011;56612;52.030;113.524;2023-04-15T05:53:35;10.67;;;3.97;;
69419;SDS011;56612;52.030;113.524;2023-04-15T05:56:40;12.75;;;4.28;;
69419;SDS011;56612;52.030;113.524;2023-04-15T06:00:10;16.55;;;4.20;;
69419;SDS011;56612;52.030;113.524;2023-04-15T06:03:24;12.60;;;3.85;;
69419;SDS011;56612;52.030;113.524;2023-04-15T06:06:27;12.63;;;2.33;;
69419;SDS011;56612;52.030;113.524;2023-04-15T06:09:31;14.00;;;2.73;;
69419;SDS011;56612;52.030;113.524;2023-04-15T06:12:46;9.40;;;2.70;;
69419;SDS011;56612;52.030;113.524;2023-04-15T06:15:50;15.15;;;3.45;;
69419;SDS011;56612;52.030;113.524;2023-04-15T06:18:54;8.90;;;2.08;;
69419;SDS011;56612;52.030;113.524;2023-04-15T06:22:06;5.00;;;1.70;;
69419;SDS011;56612;52.030;113.524;2023-04-15T06:25:09;13.03;;;2.67;;
69419;SDS011;56612;52.030;113.524;2023-04-15T06:28:13;5.57;;;2.05;;
69419;SDS011;56612;52.030;113.524;2023-04-15T06:31:17;10.45;;;1.65;;
69419;SDS011;56612;52.030;113.524;2023-04-15T06:34:22;15.80;;;2.63;;
69419;SDS011;56612;52.030;113.524;2023-04-15T06:37:26;7.03;;;1.73;;
69419;SDS011;56612;52.030;113.524;2023-04-15T06:40:30;3.97;;;1.70;;
69419;SDS011;56612;52.030;113.524;2023-04-15T06:43:33;4.50;;;1.30;;
69419;SDS011;56612;52.030;113.524;2023-04-15T06:46:37;6.72;;;1.95;;
69419;SDS011;56612;52.030;113.524;2023-04-15T06:49:44;2.55;;;1.50;;
69419;SDS011;56612;52.030;113.524;2023-04-15T06:52:48;10.13;;;2.00;;
69419;SDS011;56612;52.030;113.524;2023-04-15T06:56:04;2.53;;;1.50;;
69419;SDS011;56612;52.030;113.524;2023-04-15T06:59:11;8.50;;;1.83;;
69419;SDS011;56612;52.030;113.524;2023-04-15T07:02:16;3.13;;;1.63;;
69419;SDS011;56612;52.030;113.524;2023-04-15T07:05:20;6.85;;;1.67;;
69419;SDS011;56612;52.030;113.524;2023-04-15T07:08:23;6.25;;;1.55;;
69419;SDS011;56612;52.030;113.524;2023-04-15T07:11:26;7.90;;;2.17;;
69419;SDS011;56612;52.030;113.524;2023-04-15T07:14:30;15.43;;;3.10;;
69419;SDS011;56612;52.030;113.524;2023-04-15T07:17:34;21.33;;;3.53;;
69419;SDS011;56612;52.030;113.524;2023-04-15T07:20:38;6.13;;;1.83;;
69419;SDS011;56612;52.030;113.524;2023-04-15T07:23:41;18.73;;;2.65;;
69419;SDS011;56612;52.030;113.524;2023-04-15T07:26:45;13.07;;;2.80;;
69419;SDS011;56612;52.030;113.524;2023-04-15T07:29:48;4.00;;;2.00;;
69419;SDS011;56612;52.030;113.524;2023-04-15T07:32:54;4.05;;;1.70;;
69419;SDS011;56612;52.030;113.524;2023-04-15T07:35:58;4.47;;;1.65;;
69419;SDS011;56612;52.030;113.524;2023-04-15T07:39:01;5.00;;;1.98;;
69419;SDS011;56612;52.030;113.524;2023-04-15T07:42:05;3.50;;;1.20;;
69419;SDS011;56612;52.030;113.524;2023-04-15T07:45:09;4.50;;;1.50;;
69419;SDS011;56612;52.030;113.524;2023-04-15T07:48:12;31.42;;;3.50;;
69419;SDS011;56612;52.030;113.524;2023-04-15T07:51:16;9.63;;;1.40;;
69419;SDS011;56612;52.030;113.524;2023-04-15T07:54:21;2.88;;;0.90;;
69419;SDS011;56612;52.030;113.524;2023-04-15T07:57:25;14.83;;;1.87;;
69419;SDS011;56612;52.030;113.524;2023-04-15T08:00:28;18.38;;;1.70;;
69419;SDS011;56612;52.030;113.524;2023-04-15T08:03:32;3.40;;;1.05;;
69419;SDS011;56612;52.030;113.524;2023-04-15T08:06:36;9.07;;;2.83;;
69419;SDS011;56612;52.030;113.524;2023-04-15T08:09:41;5.60;;;2.08;;
69419;SDS011;56612;52.030;113.524;2023-04-15T08:12:45;18.87;;;6.53;;
69419;SDS011;56612;52.030;113.524;2023-04-15T08:15:55;13.50;;;7.85;;
69419;SDS011;56612;52.030;113.524;2023-04-15T08:19:24;7.70;;;2.53;;
69419;SDS011;56612;52.030;113.524;2023-04-15T08:22:28;14.55;;;4.45;;
69419;SDS011;56612;52.030;113.524;2023-04-15T08:25:32;18.67;;;3.03;;
69419;SDS011;56612;52.030;113.524;2023-04-15T08:28:37;6.87;;;1.60;;
69419;SDS011;56612;52.030;113.524;2023-04-15T08:31:42;5.03;;;2.00;;
69419;SDS011;56612;52.030;113.524;2023-04-15T08:34:46;12.05;;;2.17;;
69419;SDS011;56612;52.030;113.524;2023-04-15T08:37:49;13.55;;;1.73;;
69419;SDS011;56612;52.030;113.524;2023-04-15T08:40:53;5.43;;;1.40;;
69419;SDS011;56612;52.030;113.524;2023-04-15T08:44:05;4.77;;;1.00;;
69419;SDS011;56612;52.030;113.524;2023-04-15T08:47:09;2.42;;;1.30;;
69419;SDS011;56612;52.030;113.524;2023-04-15T08:50:15;5.65;;;1.48;;
69419;SDS011;56612;52.030;113.524;2023-04-15T08:53:20;40.40;;;23.75;;
69419;SDS011;56612;52.030;113.524;2023-04-15T08:56:24;28.98;;;5.35;;
69419;SDS011;56612;52.030;113.524;2023-04-15T08:59:29;5.23;;;1.53;;
69419;SDS011;56612;52.030;113.524;2023-04-15T09:02:33;16.40;;;3.55;;
69419;SDS011;56612;52.030;113.524;2023-04-15T09:05:38;14.30;;;3.10;;
69419;SDS011;56612;52.030;113.524;2023-04-15T09:08:42;6.85;;;1.40;;
69419;SDS011;56612;52.030;113.524;2023-04-15T09:11:46;7.22;;;2.15;;
69419;SDS011;56612;52.030;113.524;2023-04-15T09:14:52;8.40;;;2.10;;
69419;SDS011;56612;52.030;113.524;2023-04-15T09:17:57;16.38;;;2.97;;
69419;SDS011;56612;52.030;113.524;2023-04-15T09:21:04;13.10;;;3.83;;
69419;SDS011;56612;52.030;113.524;2023-04-15T09:24:10;23.83;;;2.78;;
69419;SDS011;56612;52.030;113.524;2023-04-15T09:27:16;14.32;;;2.65;;
69419;SDS011;56612;52.030;113.524;2023-04-15T09:30:19;8.90;;;2.47;;
69419;SDS011;56612;52.030;113.524;2023-04-15T09:33:22;7.03;;;1.60;;
69419;SDS011;56612;52.030;113.524;2023-04-15T09:36:26;16.02;;;2.10;;
69419;SDS011;56612;52.030;113.524;2023-04-15T09:39:46;12.07;;;1.92;;
69419;SDS011;56612;52.030;113.524;2023-04-15T09:42:54;7.63;;;1.85;;
69419;SDS011;56612;52.030;113.524;2023-04-15T09:45:58;9.20;;;1.90;;
69419;SDS011;56612;52.030;113.524;2023-04-15T09:49:07;9.00;;;2.10;;
69419;SDS011;56612;52.030;113.524;2023-04-15T09:52:12;5.25;;;2.10;;
69419;SDS011;56612;52.030;113.524;2023-04-15T09:55:17;11.60;;;2.63;;
69419;SDS011;56612;52.030;113.524;2023-04-15T09:58:21;12.95;;;2.83;;
69419;SDS011;56612;52.030;113.524;2023-04-15T10:01:28;8.03;;;2.20;;
69419;SDS011;56612;52.030;113.524;2023-04-15T10:04:34;8.65;;;2.60;;
69419;SDS011;56612;52.030;113.524;2023-04-15T10:07:41;10.43;;;2.67;;
69419;SDS011;56612;52.030;113.524;2023-04-15T10:10:45;7.28;;;2.75;;
69419;SDS011;56612;52.030;113.524;2023-04-15T10:13:50;9.30;;;2.97;;
69419;SDS011;56612;52.030;113.524;2023-04-15T10:16:54;6.20;;;2.00;;
69419;SDS011;56612;52.030;113.524;2023-04-15T10:20:00;11.45;;;2.10;;
69419;SDS011;56612;52.030;113.524;2023-04-15T10:23:07;13.30;;;2.20;;
69419;SDS011;56612;52.030;113.524;2023-04-15T10:26:14;5.60;;;2.03;;
69419;SDS011;56612;52.030;113.524;2023-04-15T10:29:18;9.77;;;2.15;;
69419;SDS011;56612;52.030;113.524;2023-04-15T10:32:23;11.10;;;1.80;;
69419;SDS011;56612;52.030;113.524;2023-04-15T10:35:28;6.45;;;1.80;;
69419;SDS011;56612;52.030;113.524;2023-04-15T10:38:39;8.55;;;2.15;;
69419;SDS011;56612;52.030;113.524;2023-04-15T10:41:45;11.90;;;3.90;;
69419;SDS011;56612;52.030;113.524;2023-04-15T10:45:09;16.17;;;4.60;;
69419;SDS011;56612;52.030;113.524;2023-04-15T10:48:22;31.23;;;7.40;;
69419;SDS011;56612;52.030;113.524;2023-04-15T10:51:29;26.33;;;6.30;;
69419;SDS011;56612;52.030;113.524;2023-04-15T10:54:34;17.75;;;3.33;;
69419;SDS011;56612;52.030;113.524;2023-04-15T10:57:38;13.07;;;3.30;;
69419;SDS011;56612;52.030;113.524;2023-04-15T11:00:48;17.02;;;3.35;;
69419;SDS011;56612;52.030;113.524;2023-04-15T11:03:54;15.30;;;3.33;;
69419;SDS011;56612;52.030;113.524;2023-04-15T11:07:04;12.10;;;2.90;;
69419;SDS011;56612;52.030;113.524;2023-04-15T11:13:20;21.42;;;3.85;;
69419;SDS011;56612;52.030;113.524;2023-04-15T11:16:25;18.08;;;3.65;;
69419;SDS011;56612;52.030;113.524;2023-04-15T11:19:35;20.37;;;3.50;;
69419;SDS011;56612;52.030;113.524;2023-04-15T11:22:49;13.40;;;2.63;;
69419;SDS011;56612;52.030;113.524;2023-04-15T11:26:14;13.57;;;2.17;;
69419;SDS011;56612;52.030;113.524;2023-04-15T11:29:18;11.95;;;2.00;;
69419;SDS011;56612;52.030;113.524;2023-04-15T11:32:23;13.88;;;4.28;;
69419;SDS011;56612;52.030;113.524;2023-04-15T11:35:26;18.20;;;3.87;;
69419;SDS011;56612;52.030;113.524;2023-04-15T11:38:31;20.52;;;4.20;;
69419;SDS011;56612;52.030;113.524;2023-04-15T11:41:36;18.25;;;4.30;;
69419;SDS011;56612;52.030;113.524;2023-04-15T11:44:40;12.57;;;4.18;;
69419;SDS011;56612;52.030;113.524;2023-04-15T11:47:43;21.70;;;5.63;;
69419;SDS011;56612;52.030;113.524;2023-04-15T11:50:57;13.23;;;5.20;;
69419;SDS011;56612;52.030;113.524;2023-04-15T11:54:01;18.35;;;5.10;;
69419;SDS011;56612;52.030;113.524;2023-04-15T11:57:06;20.60;;;5.85;;
69419;SDS011;56612;52.030;113.524;2023-04-15T12:00:10;19.55;;;7.07;;
69419;SDS011;56612;52.030;113.524;2023-04-15T12:03:25;21.52;;;6.20;;
69419;SDS011;56612;52.030;113.524;2023-04-15T12:06:32;17.73;;;6.37;;
69419;SDS011;56612;52.030;113.524;2023-04-15T12:09:41;28.15;;;5.10;;
69419;SDS011;56612;52.030;113.524;2023-04-15T12:12:47;17.45;;;5.00;;
69419;SDS011;56612;52.030;113.524;2023-04-15T12:15:51;19.98;;;4.93;;
69419;SDS011;56612;52.030;113.524;2023-04-15T12:18:58;16.20;;;5.80;;
69419;SDS011;56612;52.030;113.524;2023-04-15T12:22:04;21.27;;;5.13;;
69419;SDS011;56612;52.030;113.524;2023-04-15T12:25:10;14.73;;;5.72;;
69419;SDS011;56612;52.030;113.524;2023-04-15T12:28:13;21.73;;;6.43;;
69419;SDS011;56612;52.030;113.524;2023-04-15T12:31:19;20.77;;;6.15;;
69419;SDS011;56612;52.030;113.524;2023-04-15T12:34:27;15.13;;;4.68;;
69419;SDS011;56612;52.030;113.524;2023-04-15T12:37:34;15.77;;;4.50;;
69419;SDS011;56612;52.030;113.524;2023-04-15T12:40:37;14.32;;;4.15;;
69419;SDS011;56612;52.030;113.524;2023-04-15T12:43:43;15.15;;;3.90;;
69419;SDS011;56612;52.030;113.524;2023-04-15T12:46:47;17.77;;;4.00;;
69419;SDS011;56612;52.030;113.524;2023-04-15T12:49:51;12.48;;;3.50;;
69419;SDS011;56612;52.030;113.524;2023-04-15T12:52:56;15.40;;;3.50;;
69419;SDS011;56612;52.030;113.524;2023-04-15T12:55:59;29.77;;;4.68;;
69419;SDS011;56612;52.030;113.524;2023-04-15T12:59:03;25.95;;;4.20;;
69419;SDS011;56612;52.030;113.524;2023-04-15T13:02:07;14.07;;;3.30;;
69419;SDS011;56612;52.030;113.524;2023-04-15T13:05:10;22.25;;;4.28;;
69419;SDS011;56612;52.030;113.524;2023-04-15T13:08:16;9.33;;;2.57;;
69419;SDS011;56612;52.030;113.524;2023-04-15T13:11:21;8.52;;;2.65;;
69419;SDS011;56612;52.030;113.524;2023-04-15T13:14:24;11.85;;;2.50;;
69419;SDS011;56612;52.030;113.524;2023-04-15T13:17:29;6.10;;;1.92;;
69419;SDS011;56612;52.030;113.524;2023-04-15T13:20:33;11.77;;;2.38;;
69419;SDS011;56612;52.030;113.524;2023-04-15T13:23:37;10.00;;;2.30;;
69419;SDS011;56612;52.030;113.524;2023-04-15T13:26:40;11.90;;;3.30;;
69419;SDS011;56612;52.030;113.524;2023-04-15T13:29:43;15.05;;;4.07;;
69419;SDS011;56612;52.030;113.524;2023-04-15T13:32:47;17.13;;;4.00;;
69419;SDS011;56612;52.030;113.524;2023-04-15T13:35:51;21.35;;;4.90;;
69419;SDS011;56612;52.030;113.524;2023-04-15T13:38:56;12.43;;;3.77;;
69419;SDS011;56612;52.030;113.524;2023-04-15T13:42:02;9.55;;;2.72;;
69419;SDS011;56612;52.030;113.524;2023-04-15T13:45:06;11.73;;;2.38;;
69419;SDS011;56612;52.030;113.524;2023-04-15T13:48:10;8.82;;;2.40;;
69419;SDS011;56612;52.030;113.524;2023-04-15T13:51:13;11.73;;;2.10;;
69419;SDS011;56612;52.030;113.524;2023-04-15T13:54:18;15.80;;;2.20;;
69419;SDS011;56612;52.030;113.524;2023-04-15T13:57:21;4.88;;;1.60;;
69419;SDS011;56612;52.030;113.524;2023-04-15T14:00:25;15.75;;;2.92;;
69419;SDS011;56612;52.030;113.524;2023-04-15T14:03:29;6.78;;;2.45;;
69419;SDS011;56612;52.030;113.524;2023-04-15T14:06:33;6.65;;;2.10;;
69419;SDS011;56612;52.030;113.524;2023-04-15T14:09:36;8.87;;;2.17;;
69419;SDS011;56612;52.030;113.524;2023-04-15T14:12:43;10.27;;;3.50;;
69419;SDS011;56612;52.030;113.524;2023-04-15T14:15:47;6.95;;;2.70;;
69419;SDS011;56612;52.030;113.524;2023-04-15T14:18:51;10.60;;;3.55;;
69419;SDS011;56612;52.030;113.524;2023-04-15T14:21:56;17.48;;;4.82;;
69419;SDS011;56612;52.030;113.524;2023-04-15T14:24:59;11.80;;;4.03;;
69419;SDS011;56612;52.030;113.524;2023-04-15T14:28:03;8.65;;;2.40;;
69419;SDS011;56612;52.030;113.524;2023-04-15T14:31:07;8.27;;;2.00;;
69419;SDS011;56612;52.030;113.524;2023-04-15T14:34:11;8.68;;;1.75;;
69419;SDS011;56612;52.030;113.524;2023-04-15T14:37:15;15.85;;;1.60;;
69419;SDS011;56612;52.030;113.524;2023-04-15T14:40:18;12.47;;;1.47;;
69419;SDS011;56612;52.030;113.524;2023-04-15T14:43:23;9.57;;;1.70;;
69419;SDS011;56612;52.030;113.524;2023-04-15T14:46:26;6.20;;;1.15;;
69419;SDS011;56612;52.030;113.524;2023-04-15T14:49:29;5.47;;;1.63;;
69419;SDS011;56612;52.030;113.524;2023-04-15T14:52:34;6.30;;;1.88;;
69419;SDS011;56612;52.030;113.524;2023-04-15T14:55:40;9.53;;;1.63;;
69419;SDS011;56612;52.030;113.524;2023-04-15T14:58:44;3.85;;;1.10;;
69419;SDS011;56612;52.030;113.524;2023-04-15T15:01:48;7.85;;;1.30;;
69419;SDS011;56612;52.030;113.524;2023-04-15T15:04:52;9.27;;;2.85;;
69419;SDS011;56612;52.030;113.524;2023-04-15T15:07:56;13.40;;;2.40;;
69419;SDS011;56612;52.030;113.524;2023-04-15T15:11:00;8.93;;;2.50;;
69419;SDS011;56612;52.030;113.524;2023-04-15T15:14:04;10.20;;;1.70;;
69419;SDS011;56612;52.030;113.524;2023-04-15T15:17:08;4.57;;;1.30;;
69419;SDS011;56612;52.030;113.524;2023-04-15T15:20:12;7.55;;;1.20;;
69419;SDS011;56612;52.030;113.524;2023-04-15T15:23:16;6.50;;;1.25;;
69419;SDS011;56612;52.030;113.524;2023-04-15T15:26:21;2.60;;;0.80;;
69419;SDS011;56612;52.030;113.524;2023-04-15T15:29:25;6.97;;;1.67;;
69419;SDS011;56612;52.030;113.524;2023-04-15T15:32:28;12.73;;;1.38;;
69419;SDS011;56612;52.030;113.524;2023-04-15T15:35:32;5.00;;;0.82;;
69419;SDS011;56612;52.030;113.524;2023-04-15T15:38:37;10.57;;;1.00;;
69419;SDS011;56612;52.030;113.524;2023-04-15T15:41:42;8.60;;;1.10;;
69419;SDS011;56612;52.030;113.524;2023-04-15T15:44:46;5.18;;;0.88;;
69419;SDS011;56612;52.030;113.524;2023-04-15T15:47:51;3.05;;;0.60;;
69419;SDS011;56612;52.030;113.524;2023-04-15T15:50:55;5.03;;;0.70;;
69419;SDS011;56612;52.030;113.524;2023-04-15T15:53:58;4.50;;;0.88;;
69419;SDS011;56612;52.030;113.524;2023-04-15T15:57:02;2.37;;;0.70;;
69419;SDS011;56612;52.030;113.524;2023-04-15T16:00:07;5.43;;;0.70;;
69419;SDS011;56612;52.030;113.524;2023-04-15T16:03:14;3.90;;;0.90;;
69419;SDS011;56612;52.030;113.524;2023-04-15T16:06:18;5.03;;;0.90;;
69419;SDS011;56612;52.030;113.524;2023-04-15T16:09:22;4.63;;;0.70;;
69419;SDS011;56612;52.030;113.524;2023-04-15T16:12:26;20.93;;;2.10;;
69419;SDS011;56612;52.030;113.524;2023-04-15T16:15:30;4.18;;;0.93;;
69419;SDS011;56612;52.030;113.524;2023-04-15T16:18:33;8.85;;;0.80;;
69419;SDS011;56612;52.030;113.524;2023-04-15T16:21:37;3.80;;;1.00;;
69419;SDS011;56612;52.030;113.524;2023-04-15T16:24:41;4.13;;;1.02;;
69419;SDS011;56612;52.030;113.524;2023-04-15T16:27:45;2.80;;;0.47;;
69419;SDS011;56612;52.030;113.524;2023-04-15T16:31:07;11.63;;;0.90;;
69419;SDS011;56612;52.030;113.524;2023-04-15T16:34:12;5.20;;;0.80;;
69419;SDS011;56612;52.030;113.524;2023-04-15T16:37:18;8.68;;;0.95;;
69419;SDS011;56612;52.030;113.524;2023-04-15T16:40:23;8.70;;;0.90;;
69419;SDS011;56612;52.030;113.524;2023-04-15T16:43:28;4.70;;;0.87;;
69419;SDS011;56612;52.030;113.524;2023-04-15T16:46:32;4.45;;;1.27;;
69419;SDS011;56612;52.030;113.524;2023-04-15T16:49:35;3.42;;;1.20;;
69419;SDS011;56612;52.030;113.524;2023-04-15T16:52:39;6.60;;;0.95;;
69419;SDS011;56612;52.030;113.524;2023-04-15T16:55:42;3.83;;;0.70;;
69419;SDS011;56612;52.030;113.524;2023-04-15T16:58:46;6.37;;;0.87;;
69419;SDS011;56612;52.030;113.524;2023-04-15T17:01:50;3.70;;;0.80;;
69419;SDS011;56612;52.030;113.524;2023-04-15T17:04:54;2.67;;;0.80;;
69419;SDS011;56612;52.030;113.524;2023-04-15T17:07:57;20.70;;;1.20;;
69419;SDS011;56612;52.030;113.524;2023-04-15T17:11:01;10.50;;;0.90;;
69419;SDS011;56612;52.030;113.524;2023-04-15T17:14:05;4.90;;;1.20;;
69419;SDS011;56612;52.030;113.524;2023-04-15T17:17:09;6.22;;;1.20;;
69419;SDS011;56612;52.030;113.524;2023-04-15T17:20:13;9.18;;;1.70;;
69419;SDS011;56612;52.030;113.524;2023-04-15T17:23:19;8.80;;;1.65;;
69419;SDS011;56612;52.030;113.524;2023-04-15T17:26:23;10.00;;;1.90;;
69419;SDS011;56612;52.030;113.524;2023-04-15T17:29:26;8.33;;;1.43;;
69419;SDS011;56612;52.030;113.524;2023-04-15T17:32:30;6.40;;;1.63;;
69419;SDS011;56612;52.030;113.524;2023-04-15T17:35:35;4.75;;;1.17;;
69419;SDS011;56612;52.030;113.524;2023-04-15T17:38:39;8.38;;;1.33;;
69419;SDS011;56612;52.030;113.524;2023-04-15T17:41:43;5.03;;;0.90;;
69419;SDS011;56612;52.030;113.524;2023-04-15T17:44:46;2.50;;;0.50;;
69419;SDS011;56612;52.030;113.524;2023-04-15T17:47:51;6.82;;;1.45;;
69419;SDS011;56612;52.030;113.524;2023-04-15T17:50:55;6.72;;;1.00;;
69419;SDS011;56612;52.030;113.524;2023-04-15T17:53:59;3.17;;;0.65;;
69419;SDS011;56612;52.030;113.524;2023-04-15T17:57:03;7.43;;;1.27;;